sensor_id;sensor_type;location;lat;lon;timestamp;P1;durP1;ratioP1;P2;durP2;ratioP2
54460;SDS011;69977;49.414;11.010;2024-02-26T00:01:27;5.10;;;4.60;;
54460;SDS011;69977;49.414;11.010;2024-02-26T00:03:53;5.10;;;4.37;;
54460;SDS011;69977;49.414;11.010;2024-02-26T00:06:20;5.00;;;4.50;;
54460;SDS011;69977;49.414;11.010;2024-02-26T00:08:46;6.50;;;5.17;;
54460;SDS011;69977;49.414;11.010;2024-02-26T00:11:12;6.10;;;5.03;;
54460;SDS011;69977;49.414;11.010;2024-02-26T00:13:37;5.17;;;4.37;;
54460;SDS011;69977;49.414;11.010;2024-02-26T00:16:03;5.50;;;5.00;;
54460;SDS011;69977;49.414;11.010;2024-02-26T00:18:30;5.30;;;4.80;;
54460;SDS011;69977;49.414;11.010;2024-02-26T00:20:55;5.20;;;4.70;;
54460;SDS011;69977;49.414;11.010;2024-02-26T00:23:21;6.77;;;4.80;;
54460;SDS011;69977;49.414;11.010;2024-02-26T00:25:49;6.03;;;5.40;;
54460;SDS011;69977;49.414;11.010;2024-02-26T00:28:14;5.30;;;4.80;;
54460;SDS011;69977;49.414;11.010;2024-02-26T00:30:40;6.53;;;4.50;;
54460;SDS011;69977;49.414;11.010;2024-02-26T00:33:06;6.33;;;4.57;;
54460;SDS011;69977;49.414;11.010;2024-02-26T00:35:32;5.20;;;4.70;;
54460;SDS011;69977;49.414;11.010;2024-02-26T00:37:58;6.10;;;4.70;;
54460;SDS011;69977;49.414;11.010;2024-02-26T00:40:26;6.03;;;5.40;;
54460;SDS011;69977;49.414;11.010;2024-02-26T00:42:52;5.13;;;4.63;;
54460;SDS011;69977;49.414;11.010;2024-02-26T00:45:18;5.50;;;4.43;;
54460;SDS011;69977;49.414;11.010;2024-02-26T00:47:44;5.17;;;4.60;;
54460;SDS011;69977;49.414;11.010;2024-02-26T00:50:11;6.27;;;5.03;;
54460;SDS011;69977;49.414;11.010;2024-02-26T00:52:37;5.67;;;5.07;;
54460;SDS011;69977;49.414;11.010;2024-02-26T00:55:03;5.77;;;4.40;;
54460;SDS011;69977;49.414;11.010;2024-02-26T00:57:31;5.23;;;4.10;;
54460;SDS011;69977;49.414;11.010;2024-02-26T00:59:57;4.90;;;4.40;;
54460;SDS011;69977;49.414;11.010;2024-02-26T01:02:24;4.30;;;3.90;;
54460;SDS011;69977;49.414;11.010;2024-02-26T01:04:50;4.83;;;4.30;;
54460;SDS011;69977;49.414;11.010;2024-02-26T01:07:16;5.53;;;4.63;;
54460;SDS011;69977;49.414;11.010;2024-02-26T01:09:42;7.33;;;5.50;;
54460;SDS011;69977;49.414;11.010;2024-02-26T01:12:08;4.97;;;4.20;;
54460;SDS011;69977;49.414;11.010;2024-02-26T01:14:34;5.33;;;4.70;;
54460;SDS011;69977;49.414;11.010;2024-02-26T01:17:00;6.00;;;5.00;;
54460;SDS011;69977;49.414;11.010;2024-02-26T01:19:25;7.80;;;4.63;;
54460;SDS011;69977;49.414;11.010;2024-02-26T01:21:51;5.07;;;4.57;;
54460;SDS011;69977;49.414;11.010;2024-02-26T01:24:18;5.27;;;4.70;;
54460;SDS011;69977;49.414;11.010;2024-02-26T01:26:44;4.93;;;4.33;;
54460;SDS011;69977;49.414;11.010;2024-02-26T01:29:09;5.67;;;5.07;;
54460;SDS011;69977;49.414;11.010;2024-02-26T01:31:35;5.73;;;4.97;;
54460;SDS011;69977;49.414;11.010;2024-02-26T01:34:01;5.17;;;4.60;;
54460;SDS011;69977;49.414;11.010;2024-02-26T01:36:27;6.20;;;5.57;;
54460;SDS011;69977;49.414;11.010;2024-02-26T01:38:53;5.83;;;4.97;;
54460;SDS011;69977;49.414;11.010;2024-02-26T01:41:19;8.43;;;5.07;;
54460;SDS011;69977;49.414;11.010;2024-02-26T01:43:44;10.87;;;5.63;;
54460;SDS011;69977;49.414;11.010;2024-02-26T01:46:11;6.97;;;5.40;;
54460;SDS011;69977;49.414;11.010;2024-02-26T01:48:42;5.20;;;4.60;;
54460;SDS011;69977;49.414;11.010;2024-02-26T01:51:10;6.10;;;5.40;;
54460;SDS011;69977;49.414;11.010;2024-02-26T01:53:37;7.60;;;5.30;;
54460;SDS011;69977;49.414;11.010;2024-02-26T01:56:03;6.47;;;4.60;;
54460;SDS011;69977;49.414;11.010;2024-02-26T01:58:29;6.23;;;4.83;;
54460;SDS011;69977;49.414;11.010;2024-02-26T02:00:57;7.30;;;4.70;;
54460;SDS011;69977;49.414;11.010;2024-02-26T02:03:23;7.17;;;5.33;;
54460;SDS011;69977;49.414;11.010;2024-02-26T02:05:50;6.40;;;5.40;;
54460;SDS011;69977;49.414;11.010;2024-02-26T02:08:16;5.90;;;5.30;;
54460;SDS011;69977;49.414;11.010;2024-02-26T02:10:42;6.03;;;5.23;;
54460;SDS011;69977;49.414;11.010;2024-02-26T02:13:08;5.83;;;5.17;;
54460;SDS011;69977;49.414;11.010;2024-02-26T02:15:34;7.10;;;5.23;;
54460;SDS011;69977;49.414;11.010;2024-02-26T02:18:00;8.43;;;5.40;;
54460;SDS011;69977;49.414;11.010;2024-02-26T02:20:31;5.37;;;4.77;;
54460;SDS011;69977;49.414;11.010;2024-02-26T02:22:59;5.87;;;4.97;;
54460;SDS011;69977;49.414;11.010;2024-02-26T02:25:25;6.47;;;5.73;;
54460;SDS011;69977;49.414;11.010;2024-02-26T02:27:51;5.97;;;5.37;;
54460;SDS011;69977;49.414;11.010;2024-02-26T02:30:20;8.10;;;5.40;;
54460;SDS011;69977;49.414;11.010;2024-02-26T02:32:49;7.40;;;5.53;;
54460;SDS011;69977;49.414;11.010;2024-02-26T02:35:15;6.07;;;5.10;;
54460;SDS011;69977;49.414;11.010;2024-02-26T02:37:41;6.53;;;5.67;;
54460;SDS011;69977;49.414;11.010;2024-02-26T02:40:07;8.60;;;5.30;;
54460;SDS011;69977;49.414;11.010;2024-02-26T02:42:33;6.10;;;5.40;;
54460;SDS011;69977;49.414;11.010;2024-02-26T02:44:59;5.40;;;5.00;;
54460;SDS011;69977;49.414;11.010;2024-02-26T02:47:25;7.13;;;5.53;;
54460;SDS011;69977;49.414;11.010;2024-02-26T02:49:51;7.83;;;5.23;;
54460;SDS011;69977;49.414;11.010;2024-02-26T02:52:17;7.13;;;5.50;;
54460;SDS011;69977;49.414;11.010;2024-02-26T02:54:43;5.87;;;5.27;;
54460;SDS011;69977;49.414;11.010;2024-02-26T02:57:09;6.43;;;5.10;;
54460;SDS011;69977;49.414;11.010;2024-02-26T02:59:35;6.73;;;5.33;;
54460;SDS011;69977;49.414;11.010;2024-02-26T03:02:02;6.60;;;5.40;;
54460;SDS011;69977;49.414;11.010;2024-02-26T03:04:28;7.17;;;5.37;;
54460;SDS011;69977;49.414;11.010;2024-02-26T03:06:54;8.47;;;5.27;;
54460;SDS011;69977;49.414;11.010;2024-02-26T03:09:20;6.90;;;5.87;;
54460;SDS011;69977;49.414;11.010;2024-02-26T03:11:46;7.40;;;5.60;;
54460;SDS011;69977;49.414;11.010;2024-02-26T03:14:12;8.23;;;5.77;;
54460;SDS011;69977;49.414;11.010;2024-02-26T03:16:38;8.17;;;6.47;;
54460;SDS011;69977;49.414;11.010;2024-02-26T03:19:04;9.37;;;6.40;;
54460;SDS011;69977;49.414;11.010;2024-02-26T03:21:30;7.87;;;6.07;;
54460;SDS011;69977;49.414;11.010;2024-02-26T03:23:55;6.43;;;5.77;;
54460;SDS011;69977;49.414;11.010;2024-02-26T03:26:22;7.03;;;5.50;;
54460;SDS011;69977;49.414;11.010;2024-02-26T03:28:48;7.13;;;5.97;;
54460;SDS011;69977;49.414;11.010;2024-02-26T03:31:14;7.60;;;5.93;;
54460;SDS011;69977;49.414;11.010;2024-02-26T03:33:40;9.30;;;5.80;;
54460;SDS011;69977;49.414;11.010;2024-02-26T03:36:06;6.93;;;5.10;;
54460;SDS011;69977;49.414;11.010;2024-02-26T03:38:32;6.83;;;5.47;;
54460;SDS011;69977;49.414;11.010;2024-02-26T03:40:58;8.10;;;6.40;;
54460;SDS011;69977;49.414;11.010;2024-02-26T03:43:24;6.33;;;5.23;;
54460;SDS011;69977;49.414;11.010;2024-02-26T03:45:50;6.60;;;5.90;;
54460;SDS011;69977;49.414;11.010;2024-02-26T03:48:16;6.87;;;6.07;;
54460;SDS011;69977;49.414;11.010;2024-02-26T03:50:42;10.40;;;6.57;;
54460;SDS011;69977;49.414;11.010;2024-02-26T03:53:08;6.50;;;5.80;;
54460;SDS011;69977;49.414;11.010;2024-02-26T03:55:38;6.97;;;5.60;;
54460;SDS011;69977;49.414;11.010;2024-02-26T03:58:03;8.07;;;6.30;;
54460;SDS011;69977;49.414;11.010;2024-02-26T04:00:29;7.17;;;6.47;;
54460;SDS011;69977;49.414;11.010;2024-02-26T04:02:55;7.10;;;5.40;;
54460;SDS011;69977;49.414;11.010;2024-02-26T04:05:21;8.13;;;6.33;;
54460;SDS011;69977;49.414;11.010;2024-02-26T04:07:47;7.37;;;6.00;;
54460;SDS011;69977;49.414;11.010;2024-02-26T04:10:13;6.80;;;5.90;;
54460;SDS011;69977;49.414;11.010;2024-02-26T04:12:39;8.03;;;6.23;;
54460;SDS011;69977;49.414;11.010;2024-02-26T04:15:07;8.47;;;5.57;;
54460;SDS011;69977;49.414;11.010;2024-02-26T04:17:34;7.50;;;6.27;;
54460;SDS011;69977;49.414;11.010;2024-02-26T04:20:01;6.50;;;5.80;;
54460;SDS011;69977;49.414;11.010;2024-02-26T04:22:27;7.40;;;6.43;;
54460;SDS011;69977;49.414;11.010;2024-02-26T04:24:53;9.93;;;7.13;;
54460;SDS011;69977;49.414;11.010;2024-02-26T04:27:18;7.60;;;5.53;;
54460;SDS011;69977;49.414;11.010;2024-02-26T04:29:44;7.97;;;6.07;;
54460;SDS011;69977;49.414;11.010;2024-02-26T04:32:10;7.77;;;6.10;;
54460;SDS011;69977;49.414;11.010;2024-02-26T04:34:36;8.43;;;6.27;;
54460;SDS011;69977;49.414;11.010;2024-02-26T04:37:02;5.37;;;4.87;;
54460;SDS011;69977;49.414;11.010;2024-02-26T04:39:28;8.27;;;5.80;;
54460;SDS011;69977;49.414;11.010;2024-02-26T04:41:54;7.60;;;6.00;;
54460;SDS011;69977;49.414;11.010;2024-02-26T04:44:20;9.00;;;6.73;;
54460;SDS011;69977;49.414;11.010;2024-02-26T04:46:46;8.27;;;6.67;;
54460;SDS011;69977;49.414;11.010;2024-02-26T04:49:12;9.93;;;6.87;;
54460;SDS011;69977;49.414;11.010;2024-02-26T04:51:38;9.20;;;6.37;;
54460;SDS011;69977;49.414;11.010;2024-02-26T04:54:03;8.23;;;6.47;;
54460;SDS011;69977;49.414;11.010;2024-02-26T04:56:29;9.57;;;6.97;;
54460;SDS011;69977;49.414;11.010;2024-02-26T04:58:55;8.57;;;6.43;;
54460;SDS011;69977;49.414;11.010;2024-02-26T05:01:21;8.20;;;7.27;;
54460;SDS011;69977;49.414;11.010;2024-02-26T05:03:47;9.37;;;7.03;;
54460;SDS011;69977;49.414;11.010;2024-02-26T05:06:14;8.23;;;6.60;;
54460;SDS011;69977;49.414;11.010;2024-02-26T05:08:40;9.20;;;6.13;;
54460;SDS011;69977;49.414;11.010;2024-02-26T05:11:06;11.33;;;7.20;;
54460;SDS011;69977;49.414;11.010;2024-02-26T05:13:32;9.70;;;6.77;;
54460;SDS011;69977;49.414;11.010;2024-02-26T05:15:58;7.80;;;6.47;;
54460;SDS011;69977;49.414;11.010;2024-02-26T05:18:24;8.10;;;6.73;;
54460;SDS011;69977;49.414;11.010;2024-02-26T05:20:49;8.90;;;7.00;;
54460;SDS011;69977;49.414;11.010;2024-02-26T05:23:15;8.97;;;6.70;;
54460;SDS011;69977;49.414;11.010;2024-02-26T05:25:41;9.77;;;6.67;;
54460;SDS011;69977;49.414;11.010;2024-02-26T05:28:07;9.57;;;6.90;;
54460;SDS011;69977;49.414;11.010;2024-02-26T05:30:33;10.67;;;7.77;;
54460;SDS011;69977;49.414;11.010;2024-02-26T05:32:59;8.20;;;6.60;;
54460;SDS011;69977;49.414;11.010;2024-02-26T05:35:25;8.00;;;6.60;;
54460;SDS011;69977;49.414;11.010;2024-02-26T05:37:51;8.27;;;7.27;;
54460;SDS011;69977;49.414;11.010;2024-02-26T05:40:17;9.20;;;7.33;;
54460;SDS011;69977;49.414;11.010;2024-02-26T05:42:43;10.20;;;7.87;;
54460;SDS011;69977;49.414;11.010;2024-02-26T05:45:12;10.67;;;7.37;;
54460;SDS011;69977;49.414;11.010;2024-02-26T05:47:38;8.47;;;6.83;;
54460;SDS011;69977;49.414;11.010;2024-02-26T05:50:10;8.33;;;6.63;;
54460;SDS011;69977;49.414;11.010;2024-02-26T05:52:36;10.00;;;6.83;;
54460;SDS011;69977;49.414;11.010;2024-02-26T05:55:04;8.77;;;6.87;;
54460;SDS011;69977;49.414;11.010;2024-02-26T05:57:31;9.50;;;7.17;;
54460;SDS011;69977;49.414;11.010;2024-02-26T05:59:59;9.10;;;7.70;;
54460;SDS011;69977;49.414;11.010;2024-02-26T06:02:36;11.03;;;7.93;;
54460;SDS011;69977;49.414;11.010;2024-02-26T06:05:02;10.00;;;8.10;;
54460;SDS011;69977;49.414;11.010;2024-02-26T06:07:28;12.60;;;8.40;;
54460;SDS011;69977;49.414;11.010;2024-02-26T06:09:54;12.77;;;8.37;;
54460;SDS011;69977;49.414;11.010;2024-02-26T06:12:20;11.10;;;8.57;;
54460;SDS011;69977;49.414;11.010;2024-02-26T06:14:46;10.73;;;7.77;;
54460;SDS011;69977;49.414;11.010;2024-02-26T06:17:12;10.93;;;7.70;;
54460;SDS011;69977;49.414;11.010;2024-02-26T06:19:38;11.30;;;8.70;;
54460;SDS011;69977;49.414;11.010;2024-02-26T06:22:04;11.17;;;8.33;;
54460;SDS011;69977;49.414;11.010;2024-02-26T06:24:30;10.07;;;7.57;;
54460;SDS011;69977;49.414;11.010;2024-02-26T06:26:55;11.10;;;8.43;;
54460;SDS011;69977;49.414;11.010;2024-02-26T06:29:21;12.57;;;8.13;;
54460;SDS011;69977;49.414;11.010;2024-02-26T06:31:47;9.87;;;7.60;;
54460;SDS011;69977;49.414;11.010;2024-02-26T06:34:13;8.83;;;7.67;;
54460;SDS011;69977;49.414;11.010;2024-02-26T06:36:39;12.53;;;7.73;;
54460;SDS011;69977;49.414;11.010;2024-02-26T06:39:05;11.20;;;8.47;;
54460;SDS011;69977;49.414;11.010;2024-02-26T06:41:31;10.30;;;8.20;;
54460;SDS011;69977;49.414;11.010;2024-02-26T06:43:57;11.87;;;8.10;;
54460;SDS011;69977;49.414;11.010;2024-02-26T06:46:22;11.83;;;8.40;;
54460;SDS011;69977;49.414;11.010;2024-02-26T06:48:49;12.40;;;8.87;;
54460;SDS011;69977;49.414;11.010;2024-02-26T06:51:15;13.33;;;8.63;;
54460;SDS011;69977;49.414;11.010;2024-02-26T06:53:40;14.53;;;9.50;;
54460;SDS011;69977;49.414;11.010;2024-02-26T06:56:06;13.83;;;9.23;;
54460;SDS011;69977;49.414;11.010;2024-02-26T06:58:32;14.53;;;8.83;;
54460;SDS011;69977;49.414;11.010;2024-02-26T07:00:58;13.30;;;9.80;;
54460;SDS011;69977;49.414;11.010;2024-02-26T07:03:24;10.67;;;8.23;;
54460;SDS011;69977;49.414;11.010;2024-02-26T07:05:51;11.17;;;9.20;;
54460;SDS011;69977;49.414;11.010;2024-02-26T07:08:17;11.43;;;8.93;;
54460;SDS011;69977;49.414;11.010;2024-02-26T07:10:43;13.37;;;9.53;;
54460;SDS011;69977;49.414;11.010;2024-02-26T07:13:09;16.53;;;10.40;;
54460;SDS011;69977;49.414;11.010;2024-02-26T07:15:35;17.10;;;11.27;;
54460;SDS011;69977;49.414;11.010;2024-02-26T07:18:00;14.80;;;11.03;;
54460;SDS011;69977;49.414;11.010;2024-02-26T07:20:29;17.63;;;10.90;;
54460;SDS011;69977;49.414;11.010;2024-02-26T07:22:56;16.43;;;11.00;;
54460;SDS011;69977;49.414;11.010;2024-02-26T07:25:22;17.53;;;11.43;;
54460;SDS011;69977;49.414;11.010;2024-02-26T07:27:49;16.73;;;10.83;;
54460;SDS011;69977;49.414;11.010;2024-02-26T07:30:15;15.43;;;10.30;;
54460;SDS011;69977;49.414;11.010;2024-02-26T07:32:42;16.23;;;10.87;;
54460;SDS011;69977;49.414;11.010;2024-02-26T07:35:09;16.57;;;10.83;;
54460;SDS011;69977;49.414;11.010;2024-02-26T07:37:35;13.43;;;10.23;;
54460;SDS011;69977;49.414;11.010;2024-02-26T07:40:01;13.53;;;9.20;;
54460;SDS011;69977;49.414;11.010;2024-02-26T07:42:28;12.60;;;9.13;;
54460;SDS011;69977;49.414;11.010;2024-02-26T07:44:54;10.40;;;8.53;;
54460;SDS011;69977;49.414;11.010;2024-02-26T07:47:20;10.20;;;8.00;;
54460;SDS011;69977;49.414;11.010;2024-02-26T07:49:47;11.50;;;7.80;;
54460;SDS011;69977;49.414;11.010;2024-02-26T07:52:12;10.87;;;7.20;;
54460;SDS011;69977;49.414;11.010;2024-02-26T07:54:38;10.73;;;7.13;;
54460;SDS011;69977;49.414;11.010;2024-02-26T07:57:04;10.97;;;6.77;;
54460;SDS011;69977;49.414;11.010;2024-02-26T07:59:31;9.87;;;6.83;;
54460;SDS011;69977;49.414;11.010;2024-02-26T08:01:57;10.03;;;6.73;;
54460;SDS011;69977;49.414;11.010;2024-02-26T08:04:23;9.87;;;7.47;;
54460;SDS011;69977;49.414;11.010;2024-02-26T08:06:49;8.27;;;7.07;;
54460;SDS011;69977;49.414;11.010;2024-02-26T08:09:14;11.17;;;7.57;;
54460;SDS011;69977;49.414;11.010;2024-02-26T08:11:40;13.47;;;7.37;;
54460;SDS011;69977;49.414;11.010;2024-02-26T08:14:06;11.63;;;7.87;;
54460;SDS011;69977;49.414;11.010;2024-02-26T08:16:32;11.53;;;6.70;;
54460;SDS011;69977;49.414;11.010;2024-02-26T08:18:58;14.13;;;7.03;;
54460;SDS011;69977;49.414;11.010;2024-02-26T08:21:24;9.27;;;6.50;;
54460;SDS011;69977;49.414;11.010;2024-02-26T08:23:49;10.57;;;7.03;;
54460;SDS011;69977;49.414;11.010;2024-02-26T08:26:15;8.27;;;6.67;;
54460;SDS011;69977;49.414;11.010;2024-02-26T08:28:41;10.40;;;6.20;;
54460;SDS011;69977;49.414;11.010;2024-02-26T08:31:07;7.07;;;6.13;;
54460;SDS011;69977;49.414;11.010;2024-02-26T08:33:33;7.83;;;6.27;;
54460;SDS011;69977;49.414;11.010;2024-02-26T08:36:03;7.87;;;6.23;;
54460;SDS011;69977;49.414;11.010;2024-02-26T08:38:30;8.20;;;5.43;;
54460;SDS011;69977;49.414;11.010;2024-02-26T08:40:56;7.23;;;5.43;;
54460;SDS011;69977;49.414;11.010;2024-02-26T08:43:22;6.20;;;5.20;;
54460;SDS011;69977;49.414;11.010;2024-02-26T08:45:47;6.50;;;5.53;;
54460;SDS011;69977;49.414;11.010;2024-02-26T08:48:13;8.10;;;5.07;;
54460;SDS011;69977;49.414;11.010;2024-02-26T08:50:39;6.63;;;5.37;;
54460;SDS011;69977;49.414;11.010;2024-02-26T08:53:05;5.50;;;4.47;;
54460;SDS011;69977;49.414;11.010;2024-02-26T08:55:31;8.07;;;4.70;;
54460;SDS011;69977;49.414;11.010;2024-02-26T08:57:57;6.10;;;5.07;;
54460;SDS011;69977;49.414;11.010;2024-02-26T09:00:23;5.30;;;4.37;;
54460;SDS011;69977;49.414;11.010;2024-02-26T09:02:48;6.77;;;4.87;;
54460;SDS011;69977;49.414;11.010;2024-02-26T09:05:14;7.43;;;5.03;;
54460;SDS011;69977;49.414;11.010;2024-02-26T09:07:40;7.20;;;4.50;;
54460;SDS011;69977;49.414;11.010;2024-02-26T09:10:06;4.83;;;4.30;;
54460;SDS011;69977;49.414;11.010;2024-02-26T09:12:38;5.60;;;3.97;;
54460;SDS011;69977;49.414;11.010;2024-02-26T09:15:05;3.13;;;2.83;;
54460;SDS011;69977;49.414;11.010;2024-02-26T09:17:32;3.97;;;3.03;;
54460;SDS011;69977;49.414;11.010;2024-02-26T09:19:58;3.83;;;2.83;;
54460;SDS011;69977;49.414;11.010;2024-02-26T09:22:24;3.73;;;2.60;;
54460;SDS011;69977;49.414;11.010;2024-02-26T09:24:50;2.77;;;2.57;;
54460;SDS011;69977;49.414;11.010;2024-02-26T09:27:17;3.03;;;2.73;;
54460;SDS011;69977;49.414;11.010;2024-02-26T09:29:43;3.53;;;2.50;;
54460;SDS011;69977;49.414;11.010;2024-02-26T09:32:09;3.03;;;2.73;;
54460;SDS011;69977;49.414;11.010;2024-02-26T09:34:35;2.80;;;2.43;;
54460;SDS011;69977;49.414;11.010;2024-02-26T09:37:01;3.47;;;3.17;;
54460;SDS011;69977;49.414;11.010;2024-02-26T09:39:27;4.43;;;2.70;;
54460;SDS011;69977;49.414;11.010;2024-02-26T09:41:53;2.87;;;2.60;;
54460;SDS011;69977;49.414;11.010;2024-02-26T09:44:19;4.53;;;2.80;;
54460;SDS011;69977;49.414;11.010;2024-02-26T09:46:47;3.10;;;2.80;;
54460;SDS011;69977;49.414;11.010;2024-02-26T09:49:16;3.30;;;2.50;;
54460;SDS011;69977;49.414;11.010;2024-02-26T09:51:43;3.07;;;2.67;;
54460;SDS011;69977;49.414;11.010;2024-02-26T09:54:09;2.30;;;2.10;;
54460;SDS011;69977;49.414;11.010;2024-02-26T09:56:39;4.43;;;2.47;;
54460;SDS011;69977;49.414;11.010;2024-02-26T09:59:09;3.07;;;2.10;;
54460;SDS011;69977;49.414;11.010;2024-02-26T10:01:37;2.57;;;2.20;;
54460;SDS011;69977;49.414;11.010;2024-02-26T10:04:06;2.57;;;2.30;;
54460;SDS011;69977;49.414;11.010;2024-02-26T10:06:36;2.30;;;2.10;;
54460;SDS011;69977;49.414;11.010;2024-02-26T10:09:03;2.77;;;2.53;;
54460;SDS011;69977;49.414;11.010;2024-02-26T10:11:32;3.77;;;2.17;;
54460;SDS011;69977;49.414;11.010;2024-02-26T10:13:58;2.43;;;2.23;;
54460;SDS011;69977;49.414;11.010;2024-02-26T10:16:25;3.20;;;2.50;;
54460;SDS011;69977;49.414;11.010;2024-02-26T10:18:52;2.13;;;1.93;;
54460;SDS011;69977;49.414;11.010;2024-02-26T10:21:21;2.80;;;2.57;;
54460;SDS011;69977;49.414;11.010;2024-02-26T10:23:48;2.10;;;1.90;;
54460;SDS011;69977;49.414;11.010;2024-02-26T10:26:15;3.10;;;2.33;;
54460;SDS011;69977;49.414;11.010;2024-02-26T10:28:42;2.67;;;2.30;;
54460;SDS011;69977;49.414;11.010;2024-02-26T10:31:09;2.50;;;2.17;;
54460;SDS011;69977;49.414;11.010;2024-02-26T10:33:36;3.23;;;2.13;;
54460;SDS011;69977;49.414;11.010;2024-02-26T10:36:03;3.03;;;2.17;;
54460;SDS011;69977;49.414;11.010;2024-02-26T10:38:31;4.87;;;2.13;;
54460;SDS011;69977;49.414;11.010;2024-02-26T10:40:57;3.37;;;2.90;;
54460;SDS011;69977;49.414;11.010;2024-02-26T10:43:24;2.80;;;2.30;;
54460;SDS011;69977;49.414;11.010;2024-02-26T10:45:51;2.53;;;2.13;;
54460;SDS011;69977;49.414;11.010;2024-02-26T10:48:16;2.40;;;2.20;;
54460;SDS011;69977;49.414;11.010;2024-02-26T10:50:43;3.33;;;2.73;;
54460;SDS011;69977;49.414;11.010;2024-02-26T10:53:16;4.83;;;2.97;;
54460;SDS011;69977;49.414;11.010;2024-02-26T10:55:47;2.67;;;2.23;;
54460;SDS011;69977;49.414;11.010;2024-02-26T10:58:24;5.37;;;3.00;;
54460;SDS011;69977;49.414;11.010;2024-02-26T11:00:51;2.63;;;2.40;;
54460;SDS011;69977;49.414;11.010;2024-02-26T11:03:17;2.60;;;2.40;;
54460;SDS011;69977;49.414;11.010;2024-02-26T11:05:47;2.37;;;2.17;;
54460;SDS011;69977;49.414;11.010;2024-02-26T11:08:17;3.33;;;2.50;;
54460;SDS011;69977;49.414;11.010;2024-02-26T11:10:46;2.93;;;2.27;;
54460;SDS011;69977;49.414;11.010;2024-02-26T11:13:14;1.90;;;1.80;;
54460;SDS011;69977;49.414;11.010;2024-02-26T11:15:44;3.13;;;2.70;;
54460;SDS011;69977;49.414;11.010;2024-02-26T11:18:14;2.60;;;2.00;;
54460;SDS011;69977;49.414;11.010;2024-02-26T11:20:40;2.10;;;2.00;;
54460;SDS011;69977;49.414;11.010;2024-02-26T11:23:07;2.77;;;2.27;;
54460;SDS011;69977;49.414;11.010;2024-02-26T11:25:34;3.03;;;2.20;;
54460;SDS011;69977;49.414;11.010;2024-02-26T11:28:03;3.53;;;2.53;;
54460;SDS011;69977;49.414;11.010;2024-02-26T11:30:32;2.23;;;2.03;;
54460;SDS011;69977;49.414;11.010;2024-02-26T11:33:03;2.63;;;2.10;;
54460;SDS011;69977;49.414;11.010;2024-02-26T11:35:33;2.93;;;2.50;;
54460;SDS011;69977;49.414;11.010;2024-02-26T11:38:01;3.40;;;2.20;;
54460;SDS011;69977;49.414;11.010;2024-02-26T11:40:28;4.57;;;2.17;;
54460;SDS011;69977;49.414;11.010;2024-02-26T11:42:57;2.10;;;2.00;;
54460;SDS011;69977;49.414;11.010;2024-02-26T11:48:10;2.20;;;2.00;;
54460;SDS011;69977;49.414;11.010;2024-02-26T11:50:47;4.43;;;2.20;;
54460;SDS011;69977;49.414;11.010;2024-02-26T11:53:27;2.13;;;2.00;;
54460;SDS011;69977;49.414;11.010;2024-02-26T11:58:41;3.47;;;2.30;;
54460;SDS011;69977;49.414;11.010;2024-02-26T12:04:04;2.93;;;2.70;;
54460;SDS011;69977;49.414;11.010;2024-02-26T12:06:33;4.37;;;2.20;;
54460;SDS011;69977;49.414;11.010;2024-02-26T12:11:57;3.27;;;2.00;;
54460;SDS011;69977;49.414;11.010;2024-02-26T12:14:26;2.70;;;2.50;;
54460;SDS011;69977;49.414;11.010;2024-02-26T12:16:52;2.67;;;2.40;;
54460;SDS011;69977;49.414;11.010;2024-02-26T12:19:18;2.43;;;2.20;;
54460;SDS011;69977;49.414;11.010;2024-02-26T12:21:44;5.10;;;2.37;;
54460;SDS011;69977;49.414;11.010;2024-02-26T12:24:16;3.57;;;2.20;;
54460;SDS011;69977;49.414;11.010;2024-02-26T12:26:45;1.97;;;1.87;;
54460;SDS011;69977;49.414;11.010;2024-02-26T12:29:11;3.53;;;2.33;;
54460;SDS011;69977;49.414;11.010;2024-02-26T12:31:37;3.00;;;2.40;;
54460;SDS011;69977;49.414;11.010;2024-02-26T12:34:04;2.30;;;2.17;;
54460;SDS011;69977;49.414;11.010;2024-02-26T12:36:31;2.23;;;2.03;;
54460;SDS011;69977;49.414;11.010;2024-02-26T12:38:59;1.77;;;1.67;;
54460;SDS011;69977;49.414;11.010;2024-02-26T12:41:27;1.93;;;1.83;;
54460;SDS011;69977;49.414;11.010;2024-02-26T12:43:55;3.43;;;1.90;;
54460;SDS011;69977;49.414;11.010;2024-02-26T12:46:21;2.07;;;1.60;;
54460;SDS011;69977;49.414;11.010;2024-02-26T12:48:47;2.53;;;1.87;;
54460;SDS011;69977;49.414;11.010;2024-02-26T12:51:14;2.50;;;1.60;;
54460;SDS011;69977;49.414;11.010;2024-02-26T12:53:41;1.53;;;1.43;;
54460;SDS011;69977;49.414;11.010;2024-02-26T12:56:07;3.40;;;1.37;;
54460;SDS011;69977;49.414;11.010;2024-02-26T12:58:35;1.93;;;1.40;;
54460;SDS011;69977;49.414;11.010;2024-02-26T13:01:03;1.93;;;1.70;;
54460;SDS011;69977;49.414;11.010;2024-02-26T13:03:30;2.10;;;1.80;;
54460;SDS011;69977;49.414;11.010;2024-02-26T13:06:00;3.67;;;1.57;;
54460;SDS011;69977;49.414;11.010;2024-02-26T13:08:28;1.57;;;1.40;;
54460;SDS011;69977;49.414;11.010;2024-02-26T13:10:55;1.93;;;1.83;;
54460;SDS011;69977;49.414;11.010;2024-02-26T13:13:22;1.60;;;1.50;;
54460;SDS011;69977;49.414;11.010;2024-02-26T13:15:48;1.53;;;1.43;;
54460;SDS011;69977;49.414;11.010;2024-02-26T13:18:14;2.10;;;1.37;;
54460;SDS011;69977;49.414;11.010;2024-02-26T13:20:40;2.00;;;1.50;;
54460;SDS011;69977;49.414;11.010;2024-02-26T13:23:07;1.30;;;1.20;;
54460;SDS011;69977;49.414;11.010;2024-02-26T13:25:37;2.47;;;1.03;;
54460;SDS011;69977;49.414;11.010;2024-02-26T13:28:22;1.20;;;1.10;;
54460;SDS011;69977;49.414;11.010;2024-02-26T13:30:52;2.57;;;1.00;;
54460;SDS011;69977;49.414;11.010;2024-02-26T13:33:23;1.40;;;1.30;;
54460;SDS011;69977;49.414;11.010;2024-02-26T13:35:50;2.33;;;1.03;;
54460;SDS011;69977;49.414;11.010;2024-02-26T13:38:17;1.43;;;1.10;;
54460;SDS011;69977;49.414;11.010;2024-02-26T13:40:43;1.17;;;1.07;;
54460;SDS011;69977;49.414;11.010;2024-02-26T13:43:09;0.97;;;0.97;;
54460;SDS011;69977;49.414;11.010;2024-02-26T13:45:35;0.97;;;0.97;;
54460;SDS011;69977;49.414;11.010;2024-02-26T13:48:06;1.63;;;1.30;;
54460;SDS011;69977;49.414;11.010;2024-02-26T13:50:35;1.20;;;1.10;;
54460;SDS011;69977;49.414;11.010;2024-02-26T13:53:01;2.70;;;1.20;;
54460;SDS011;69977;49.414;11.010;2024-02-26T13:55:27;1.50;;;1.40;;
54460;SDS011;69977;49.414;11.010;2024-02-26T13:57:58;1.27;;;1.20;;
54460;SDS011;69977;49.414;11.010;2024-02-26T14:00:27;1.10;;;1.03;;
54460;SDS011;69977;49.414;11.010;2024-02-26T14:02:54;1.33;;;1.23;;
54460;SDS011;69977;49.414;11.010;2024-02-26T14:05:20;0.90;;;0.90;;
54460;SDS011;69977;49.414;11.010;2024-02-26T14:07:45;1.00;;;0.97;;
54460;SDS011;69977;49.414;11.010;2024-02-26T14:10:11;1.03;;;1.03;;
54460;SDS011;69977;49.414;11.010;2024-02-26T14:12:38;1.20;;;1.10;;
54460;SDS011;69977;49.414;11.010;2024-02-26T14:15:07;2.07;;;1.13;;
54460;SDS011;69977;49.414;11.010;2024-02-26T14:17:35;1.20;;;1.10;;
54460;SDS011;69977;49.414;11.010;2024-02-26T14:20:01;1.20;;;1.10;;
54460;SDS011;69977;49.414;11.010;2024-02-26T14:22:27;1.20;;;1.10;;
54460;SDS011;69977;49.414;11.010;2024-02-26T14:24:53;1.50;;;1.07;;
54460;SDS011;69977;49.414;11.010;2024-02-26T14:27:19;1.67;;;1.17;;
54460;SDS011;69977;49.414;11.010;2024-02-26T14:29:47;2.13;;;1.60;;
54460;SDS011;69977;49.414;11.010;2024-02-26T14:32:13;2.17;;;1.40;;
54460;SDS011;69977;49.414;11.010;2024-02-26T14:34:40;1.13;;;1.03;;
54460;SDS011;69977;49.414;11.010;2024-02-26T14:37:06;1.40;;;1.30;;
54460;SDS011;69977;49.414;11.010;2024-02-26T14:39:32;1.50;;;1.40;;